Terminal Aerodrome Forecast
Issued by NWS Central Illinois

Home | Current Version | Previous Version | Text Only | Print | Product List | Glossary On
Versions: 1 2 3 4 5 6 7 8 9 10 11 12 13 14 15 16 17 18 19 20
672
FTUS43 KILX 220905 AAB
TAFPIA
TAF AMD
KPIA 220905Z 2209/2306 23010KT P6SM -RA OVC050
     FM221100 22006KT 2SM BR OVC015
     FM221400 29009KT P6SM BKN030
     FM221800 32010KT P6SM SCT050
     FM230100 34006KT P6SM FEW250=

USA.gov is the U.S. government's official web portal to all federal, state and local government web resources and services.